Latest Coastal Weather Observations for Burnie Port

IDT60701

Issued at 12:55 pm EST Friday 18 April 2014 (issued every 10 minutes, with the page automatically refreshed every 10 minutes)

About coastal observations | Map of coastal stations | Coastal observations for TAS | Marine services | Other Formats
Station Details ID: 091344 Name: BURNIE NTC AWS Lat: -41.05 Lon: 145.91 Height: 0.0 m
Data from the previous 72 hours. | See also: Recent months for locations in Tasmania
Date/Time
EST
Temp

°C
Wind Pressure Rain
since 9am
mm
Weather Cloud Vis
km
Sea
Height
m
Swell
Dir
 
Speed
knots
Gust
knots
hPa Trend Height
m
Period
s
Dir
18/12:36pm 15.3 WSW 15 26 1009.9 - - - - - - - - -
18/12:30pm 15.4 WSW 13 23 1009.9 - - - - - - - - -
18/12:00pm 14.0 WSW 10 18 1010.0 - - - - - - - - -
18/11:30am 13.1 WSW 9 20 1010.0 - - - - - - - - -
18/11:00am 13.0 WSW 7 13 1009.9 - - - - - - - - -
18/10:30am 13.5 WSW 8 14 1010.0 - - - - - - - - -
18/10:00am 13.3 SSW 15 22 1009.4 - - - - - - - - -
18/09:30am 13.2 SW 15 26 1010.2 - - - - - - - - -
18/09:29am 13.1 SW 15 26 1010.3 - - - - - - - - -
18/09:00am 12.7 SW 14 22 1010.3 - - - - - - - - -
18/08:55am 14.9 W 17 22 1010.8 - - - - - - - - -
18/08:37am 15.4 NW 21 26 1009.8 - - - - - - - - -
18/08:30am 15.6 WNW 8 12 1009.8 - - - - - - - - -
18/08:00am 15.7 W 6 11 1010.0 - - - - - - - - -
18/07:30am 15.5 W 5 11 1010.3 - - - - - - - - -
18/07:00am 15.6 W 6 11 1010.5 - - - - - - - - -
18/06:30am 15.9 W 8 14 1010.6 - - - - - - - - -
18/06:00am 16.5 W 12 17 1010.8 - - - - - - - - -
18/05:30am 17.4 NNW 14 17 1010.8 - - - - - - - - -
18/05:00am 17.3 NNW 16 20 1011.1 - - - - - - - - -
18/04:30am 17.2 NNW 15 17 1011.7 - - - - - - - - -
18/04:00am 17.1 NNW 15 18 1012.1 - - - - - - - - -
18/03:30am 17.0 NNW 14 17 1012.4 - - - - - - - - -
18/03:00am 17.1 NNW 13 16 1012.8 - - - - - - - - -
18/02:30am 14.9 SW 2 3 1013.5 - - - - - - - - -
18/02:00am 14.7 SSW 2 3 1014.0 - - - - - - - - -
18/01:30am 15.0 SSW 2 3 1014.6 - - - - - - - - -
18/01:00am 14.3 SSW 4 5 1014.9 - - - - - - - - -
18/12:30am 14.2 SSW 4 6 1015.3 - - - - - - - - -
18/12:00am 14.1 S 4 5 1015.5 - - - - - - - - -
 
Date/Time
EST
Temp

°C
Wind Pressure Rain
since 9am
mm
Weather Cloud Vis
km
Sea
Height
m
Swell
Dir
 
Speed
knots
Gust
knots
hPa Trend Height
m
Period
s
Dir
17/11:30pm 14.2 S 4 5 1015.8 - - - - - - - - -
17/11:00pm 14.7 SW 3 4 1016.2 - - - - - - - - -
17/10:30pm 14.6 S 3 4 1016.5 - - - - - - - - -
17/10:00pm 14.8 S 4 5 1017.1 - - - - - - - - -
17/09:30pm 15.0 SSW 4 5 1017.2 - - - - - - - - -
17/09:00pm 15.4 SSW 3 4 1017.2 - - - - - - - - -
17/08:30pm 16.6 W 4 6 1017.4 - - - - - - - - -
17/08:00pm 15.9 S 4 6 1017.6 - - - - - - - - -
17/07:30pm 16.9 N 4 6 1017.6 - - - - - - - - -
17/07:00pm 17.0 N 3 5 1017.6 - - - - - - - - -
17/06:30pm 16.9 NNW 6 8 1017.7 - - - - - - - - -
17/06:00pm 17.0 N 6 9 1017.8 - - - - - - - - -
17/05:30pm 17.0 N 7 10 1017.8 - - - - - - - - -
17/05:00pm 17.0 N 8 10 1017.9 - - - - - - - - -
17/04:30pm 16.9 N 9 12 1017.8 - - - - - - - - -
17/04:00pm 17.2 N 10 12 1018.1 - - - - - - - - -
17/03:30pm 17.2 N 10 12 1018.4 - - - - - - - - -
17/03:00pm 17.2 NNE 10 12 1018.5 - - - - - - - - -
17/02:30pm 17.2 NNE 11 13 1018.7 - - - - - - - - -
17/02:00pm 16.9 NE 9 13 1018.9 - - - - - - - - -
17/01:30pm 17.1 ENE 6 9 1019.1 - - - - - - - - -
17/01:00pm 17.0 NE 5 7 1019.6 - - - - - - - - -
17/12:30pm 17.1 NE 7 10 1019.8 - - - - - - - - -
17/12:00pm 17.1 ENE 5 8 1020.1 - - - - - - - - -
17/11:30am 16.5 ESE 10 12 1020.4 - - - - - - - - -
17/11:00am 15.9 ESE 10 12 1020.6 - - - - - - - - -
17/10:30am 15.8 ESE 11 13 1020.5 - - - - - - - - -
17/10:00am 15.4 ESE 13 14 1020.3 - - - - - - - - -
17/09:30am 15.5 ESE 14 16 1020.3 - - - - - - - - -
17/09:00am 15.6 ESE 7 11 1020.7 - - - - - - - - -
17/08:30am 14.8 S 6 8 1020.5 - - - - - - - - -
17/08:00am 14.4 S 6 8 1020.6 - - - - - - - - -
17/07:30am 13.9 SSW 6 7 1020.3 - - - - - - - - -
17/07:00am 13.9 SSW 6 8 1020.0 - - - - - - - - -
17/06:30am 13.9 SSW 5 7 1019.9 - - - - - - - - -
17/06:00am 14.0 SSW 6 7 1019.8 - - - - - - - - -
17/05:30am 14.1 S 6 7 1019.8 - - - - - - - - -
17/05:00am 14.0 S 6 8 1019.6 - - - - - - - - -
17/04:30am 14.4 S 5 9 1019.6 - - - - - - - - -
17/04:00am 14.4 SSW 4 6 1019.5 - - - - - - - - -
17/03:30am 14.5 S 5 8 1019.5 - - - - - - - - -
17/03:00am 14.3 S 7 9 1019.4 - - - - - - - - -
17/02:30am 14.4 S 7 8 1019.7 - - - - - - - - -
17/02:00am 14.5 S 7 9 1019.9 - - - - - - - - -
17/01:30am 14.9 SSW 4 7 1019.9 - - - - - - - - -
17/01:00am 14.8 S 6 8 1019.9 - - - - - - - - -
17/12:30am 14.4 S 5 7 1019.9 - - - - - - - - -
17/12:00am 14.4 S 4 6 1019.9 - - - - - - - - -
 
Date/Time
EST
Temp

°C
Wind Pressure Rain
since 9am
mm
Weather Cloud Vis
km
Sea
Height
m
Swell
Dir
 
Speed
knots
Gust
knots
hPa Trend Height
m
Period
s
Dir
16/11:30pm 14.3 S 6 7 1020.0 - - - - - - - - -
16/11:00pm 14.3 S 6 7 1020.4 - - - - - - - - -
16/10:30pm 14.4 S 6 8 1020.4 - - - - - - - - -
16/10:00pm 14.6 SSW 5 6 1020.5 - - - - - - - - -
16/09:30pm 14.4 SSW 5 6 1020.4 - - - - - - - - -
16/09:00pm 14.6 S 6 7 1020.1 - - - - - - - - -
16/08:30pm 14.4 SSW 5 6 1020.2 - - - - - - - - -
16/08:00pm 14.4 S 4 5 1020.1 - - - - - - - - -
16/07:30pm 14.5 SSW 4 4 1020.2 - - - - - - - - -
16/07:00pm 14.6 S 4 4 1020.3 - - - - - - - - -
16/06:30pm 15.5 SSW 3 4 1020.3 - - - - - - - - -
16/06:00pm 16.0 ESE 2 3 1020.0 - - - - - - - - -
16/05:30pm 16.0 ESE 2 3 1019.9 - - - - - - - - -
16/05:00pm 16.1 ESE 2 4 1019.9 - - - - - - - - -
16/04:30pm 16.2 E 3 4 1019.9 - - - - - - - - -
16/04:00pm 16.1 ENE 4 6 1020.0 - - - - - - - - -
16/03:30pm 15.9 E 5 7 1020.0 - - - - - - - - -
16/03:00pm 15.9 E 5 8 1020.0 - - - - - - - - -
16/02:30pm 16.1 ENE 4 8 1020.4 - - - - - - - - -
16/02:00pm 15.9 ENE 4 7 1020.6 - - - - - - - - -
16/01:30pm 15.8 ENE 5 8 1020.7 - - - - - - - - -
16/01:00pm 15.5 E 7 9 1021.0 - - - - - - - - -
16/12:30pm 15.3 E 9 11 1021.2 - - - - - - - - -
16/12:00pm 15.1 E 9 12 1021.5 - - - - - - - - -
16/11:30am 15.3 E 11 13 1021.8 - - - - - - - - -
16/11:00am 15.2 E 9 11 1022.0 - - - - - - - - -
16/10:30am 15.1 E 7 9 1022.2 - - - - - - - - -
16/10:00am 15.2 E 7 10 1022.3 - - - - - - - - -
16/09:30am 15.4 SE 4 7 1022.5 - - - - - - - - -
16/09:00am 14.7 S 6 8 1022.5 - - - - - - - - -
16/08:30am 14.1 S 8 9 1022.6 - - - - - - - - -
16/08:00am 13.3 S 9 11 1022.4 - - - - - - - - -
16/07:30am 13.0 S 10 11 1022.3 - - - - - - - - -
16/07:00am 12.8 S 9 11 1022.2 - - - - - - - - -
16/06:30am 13.2 S 4 6 1022.3 - - - - - - - - -
16/06:00am 13.3 S 7 9 1022.4 - - - - - - - - -
16/05:30am 13.3 S 8 9 1022.2 - - - - - - - - -
16/05:00am 13.7 S 8 9 1022.2 - - - - - - - - -
16/04:30am 13.7 S 8 9 1022.2 - - - - - - - - -
16/04:00am 13.8 S 8 9 1022.3 - - - - - - - - -
16/03:30am 13.7 S 8 9 1022.3 - - - - - - - - -
16/03:00am 14.0 S 7 8 1022.6 - - - - - - - - -
16/02:30am 13.7 S 9 10 1022.7 - - - - - - - - -
16/02:00am 14.1 S 8 9 1023.2 - - - - - - - - -
16/01:30am 13.9 S 8 9 1023.4 - - - - - - - - -
16/01:00am 14.3 S 6 9 1023.7 - - - - - - - - -
16/12:30am 15.3 SE 7 12 1023.8 - - - - - - - - -
16/12:00am 16.5 NE 10 13 1023.8 - - - - - - - - -
 
Date/Time
EST
Temp

°C
Wind Pressure Rain
since 9am
mm
Weather Cloud Vis
km
Sea
Height
m
Swell
Dir
 
Speed
knots
Gust
knots
hPa Trend Height
m
Period
s
Dir
15/11:30pm 16.5 NE 10 12 1023.9 - - - - - - - - -
15/11:00pm 15.8 NNW 2 3 1024.1 - - - - - - - - -

Other Formats:

Comma delimited format used in spreadsheet applications
http://www.bom.gov.au/fwo/IDT60701/IDT60701.95963.axf

JavaScript Object Notation format (JSON) in row-major order
http://www.bom.gov.au/fwo/IDT60701/IDT60701.95963.json